DLH33T LOWW-EDDF
Flight info
| Callsign | DLH33T |
|---|---|
| Flight time | 1h 0m |
| Altitude | 30000 |
| Route | LUGEM1D LUGEM DCT SUBEN T161 DEBHI DEBHI1B |
| Aircraft | A320/M-VGDW/C |
Departure
| Time | 2026-05-07 12:29 |
|---|---|
| Airport | Vienna International Airport (LOWW) |
Arrival
| Time | 2026-05-07 13:30 |
|---|---|
| Airport | Frankfurt Main Airport (EDDF) |
| Time | Latitude | Longitude | Altitude | Speed | Heading |
|---|---|---|---|---|---|
| 2026-05-07 11:52 | 48.11728 | 16.56738 | 622 ft | 0 kts | 26° |
| 2026-05-07 12:20 | 48.11717 | 16.56729 | 626 ft | 3 kts | 27° |
| 2026-05-07 12:20 | 48.11697 | 16.56712 | 626 ft | 3 kts | 34° |
| 2026-05-07 12:21 | 48.11678 | 16.56691 | 622 ft | 3 kts | 48° |
| 2026-05-07 12:21 | 48.11667 | 16.56664 | 626 ft | 3 kts | 85° |
| 2026-05-07 12:21 | 48.11668 | 16.56645 | 626 ft | 1 kts | 116° |
| 2026-05-07 12:21 | 48.11669 | 16.56641 | 626 ft | 0 kts | 116° |
| 2026-05-07 12:24 | 48.11669 | 16.56642 | 610 ft | 1 kts | 116° |
| 2026-05-07 12:24 | 48.11647 | 16.56707 | 620 ft | 9 kts | 116° |
| 2026-05-07 12:24 | 48.11622 | 16.56783 | 618 ft | 8 kts | 116° |
| 2026-05-07 12:25 | 48.11593 | 16.56871 | 620 ft | 11 kts | 116° |
| 2026-05-07 12:25 | 48.11539 | 16.56919 | 615 ft | 9 kts | 184° |
| 2026-05-07 12:25 | 48.11488 | 16.56887 | 611 ft | 7 kts | 205° |
| 2026-05-07 12:25 | 48.11419 | 16.56838 | 626 ft | 16 kts | 206° |
| 2026-05-07 12:26 | 48.11333 | 16.56889 | 626 ft | 15 kts | 118° |
| 2026-05-07 12:26 | 48.11292 | 16.57021 | 619 ft | 13 kts | 116° |
| 2026-05-07 12:26 | 48.11246 | 16.57159 | 618 ft | 18 kts | 117° |
| 2026-05-07 12:26 | 48.11191 | 16.57330 | 615 ft | 18 kts | 116° |
| 2026-05-07 12:27 | 48.11138 | 16.57492 | 618 ft | 17 kts | 116° |
| 2026-05-07 12:27 | 48.11084 | 16.57633 | 615 ft | 15 kts | 141° |
| 2026-05-07 12:27 | 48.10992 | 16.57611 | 610 ft | 15 kts | 206° |
| 2026-05-07 12:27 | 48.10927 | 16.57507 | 612 ft | 15 kts | 281° |
| 2026-05-07 12:28 | 48.10938 | 16.57468 | 616 ft | 0 kts | 297° |
| 2026-05-07 12:28 | 48.10938 | 16.57467 | 616 ft | 1 kts | 297° |
| 2026-05-07 12:28 | 48.11009 | 16.57243 | 618 ft | 61 kts | 295° |
| 2026-05-07 12:28 | 48.11295 | 16.56362 | 620 ft | 125 kts | 296° |
| 2026-05-07 12:29 | 48.11743 | 16.54984 | 719 ft | 164 kts | 295° |
| 2026-05-07 12:29 | 48.12200 | 16.53417 | 1401 ft | 166 kts | 278° |
| 2026-05-07 12:29 | 48.12092 | 16.51676 | 2053 ft | 174 kts | 258° |
| 2026-05-07 12:29 | 48.11861 | 16.49814 | 2412 ft | 197 kts | 259° |
| 2026-05-07 12:30 | 48.11596 | 16.47677 | 2861 ft | 221 kts | 258° |
| 2026-05-07 12:30 | 48.11249 | 16.45315 | 3345 ft | 244 kts | 255° |
| 2026-05-07 12:30 | 48.10809 | 16.42745 | 3942 ft | 262 kts | 253° |
| 2026-05-07 12:30 | 48.10333 | 16.40078 | 4881 ft | 267 kts | 254° |
| 2026-05-07 12:31 | 48.09881 | 16.37381 | 5868 ft | 269 kts | 261° |
| 2026-05-07 12:31 | 48.09822 | 16.34572 | 6830 ft | 272 kts | 270° |
| 2026-05-07 12:31 | 48.09862 | 16.31744 | 7790 ft | 273 kts | 270° |
| 2026-05-07 12:31 | 48.09913 | 16.28889 | 8716 ft | 276 kts | 270° |
| 2026-05-07 12:32 | 48.09972 | 16.25991 | 9653 ft | 279 kts | 270° |
| 2026-05-07 12:32 | 48.10030 | 16.23054 | 10349 ft | 291 kts | 270° |
| 2026-05-07 12:32 | 48.10137 | 16.19909 | 10655 ft | 315 kts | 275° |
| 2026-05-07 12:32 | 48.10444 | 16.16583 | 11161 ft | 328 kts | 276° |
| 2026-05-07 12:33 | 48.11071 | 16.09723 | 12737 ft | 336 kts | 275° |
| 2026-05-07 12:33 | 48.11384 | 16.06241 | 13540 ft | 339 kts | 275° |
| 2026-05-07 12:33 | 48.11698 | 16.02729 | 14264 ft | 342 kts | 275° |
| 2026-05-07 12:34 | 48.12017 | 15.99181 | 14973 ft | 345 kts | 274° |
| 2026-05-07 12:34 | 48.12336 | 15.95618 | 15688 ft | 347 kts | 274° |
| 2026-05-07 12:34 | 48.12658 | 15.92022 | 16390 ft | 350 kts | 274° |
| 2026-05-07 12:34 | 48.12983 | 15.88393 | 17079 ft | 353 kts | 274° |
| 2026-05-07 12:35 | 48.13307 | 15.84734 | 17753 ft | 356 kts | 273° |
| 2026-05-07 12:35 | 48.13631 | 15.81041 | 18384 ft | 360 kts | 273° |
| 2026-05-07 12:35 | 48.13950 | 15.77363 | 18952 ft | 362 kts | 272° |
| 2026-05-07 12:35 | 48.14275 | 15.73608 | 19517 ft | 365 kts | 272° |
| 2026-05-07 12:36 | 48.14602 | 15.69825 | 20092 ft | 368 kts | 272° |
| 2026-05-07 12:36 | 48.14932 | 15.66002 | 20631 ft | 371 kts | 272° |
| 2026-05-07 12:36 | 48.15265 | 15.62155 | 21173 ft | 374 kts | 271° |
| 2026-05-07 12:36 | 48.15603 | 15.58267 | 21706 ft | 377 kts | 271° |
| 2026-05-07 12:37 | 48.15940 | 15.54358 | 22294 ft | 380 kts | 272° |
| 2026-05-07 12:37 | 48.16277 | 15.50409 | 22794 ft | 383 kts | 271° |
| 2026-05-07 12:37 | 48.16612 | 15.46436 | 23310 ft | 386 kts | 271° |
| 2026-05-07 12:37 | 48.16949 | 15.42429 | 23779 ft | 389 kts | 271° |
| 2026-05-07 12:38 | 48.17289 | 15.38397 | 24209 ft | 391 kts | 270° |
| 2026-05-07 12:38 | 48.17618 | 15.34350 | 24638 ft | 393 kts | 270° |
| 2026-05-07 12:38 | 48.17951 | 15.30271 | 25064 ft | 395 kts | 270° |
| 2026-05-07 12:38 | 48.18291 | 15.26167 | 25492 ft | 397 kts | 270° |
| 2026-05-07 12:39 | 48.18637 | 15.22050 | 25907 ft | 399 kts | 270° |
| 2026-05-07 12:39 | 48.18990 | 15.17908 | 26320 ft | 401 kts | 270° |
| 2026-05-07 12:39 | 48.19351 | 15.13755 | 26728 ft | 403 kts | 270° |
| 2026-05-07 12:39 | 48.19711 | 15.09579 | 27174 ft | 405 kts | 270° |
| 2026-05-07 12:40 | 48.20054 | 15.05387 | 27578 ft | 407 kts | 270° |
| 2026-05-07 12:40 | 48.20401 | 15.01167 | 28000 ft | 409 kts | 270° |
| 2026-05-07 12:40 | 48.20759 | 14.96922 | 28408 ft | 411 kts | 270° |
| 2026-05-07 12:40 | 48.21126 | 14.92660 | 28806 ft | 413 kts | 270° |
| 2026-05-07 12:41 | 48.21502 | 14.88374 | 29189 ft | 415 kts | 270° |
| 2026-05-07 12:41 | 48.21887 | 14.84077 | 29563 ft | 417 kts | 270° |
| 2026-05-07 12:41 | 48.22280 | 14.79755 | 29893 ft | 419 kts | 270° |
| 2026-05-07 12:41 | 48.22674 | 14.75478 | 29990 ft | 419 kts | 270° |
| 2026-05-07 12:42 | 48.23472 | 14.66777 | 29987 ft | 418 kts | 270° |
| 2026-05-07 12:42 | 48.24211 | 14.58194 | 29992 ft | 417 kts | 270° |
| 2026-05-07 12:43 | 48.24949 | 14.49556 | 29996 ft | 417 kts | 270° |
| 2026-05-07 12:43 | 48.25684 | 14.40909 | 29999 ft | 417 kts | 270° |
| 2026-05-07 12:44 | 48.26417 | 14.32258 | 29997 ft | 417 kts | 270° |
| 2026-05-07 12:44 | 48.27131 | 14.23627 | 30029 ft | 416 kts | 270° |
| 2026-05-07 12:45 | 48.27800 | 14.14996 | 30017 ft | 416 kts | 270° |
| 2026-05-07 12:45 | 48.28462 | 14.06363 | 30005 ft | 416 kts | 270° |
| 2026-05-07 12:46 | 48.29124 | 13.97742 | 29992 ft | 416 kts | 270° |
| 2026-05-07 12:46 | 48.29787 | 13.89099 | 29987 ft | 416 kts | 270° |
| 2026-05-07 12:47 | 48.30397 | 13.80475 | 29996 ft | 416 kts | 270° |
| 2026-05-07 12:47 | 48.30897 | 13.71810 | 29981 ft | 416 kts | 270° |
| 2026-05-07 12:48 | 48.31388 | 13.63133 | 29986 ft | 417 kts | 270° |
| 2026-05-07 12:48 | 48.31876 | 13.54434 | 29989 ft | 418 kts | 270° |
| 2026-05-07 12:49 | 48.32356 | 13.45777 | 29994 ft | 418 kts | 270° |
| 2026-05-07 12:49 | 48.32781 | 13.37063 | 30008 ft | 418 kts | 270° |
| 2026-05-07 12:50 | 48.33092 | 13.28337 | 30001 ft | 419 kts | 270° |
| 2026-05-07 12:50 | 48.33401 | 13.19592 | 29988 ft | 419 kts | 270° |
| 2026-05-07 12:51 | 48.33705 | 13.10843 | 30006 ft | 419 kts | 270° |
| 2026-05-07 12:51 | 48.34012 | 13.02087 | 29991 ft | 419 kts | 270° |
| 2026-05-07 12:52 | 48.34286 | 12.93321 | 30005 ft | 420 kts | 270° |
| 2026-05-07 12:52 | 48.34462 | 12.84532 | 29998 ft | 421 kts | 270° |
| 2026-05-07 12:53 | 48.34635 | 12.75734 | 30000 ft | 421 kts | 270° |
| 2026-05-07 12:53 | 48.34806 | 12.66923 | 30001 ft | 422 kts | 270° |
| 2026-05-07 12:54 | 48.36029 | 12.58547 | 30016 ft | 411 kts | 294° |
| 2026-05-07 12:54 | 48.38733 | 12.51037 | 30014 ft | 409 kts | 296° |
| 2026-05-07 12:55 | 48.41488 | 12.43477 | 30019 ft | 410 kts | 296° |
| 2026-05-07 12:55 | 48.44199 | 12.35988 | 30015 ft | 410 kts | 295° |
| 2026-05-07 12:56 | 48.46921 | 12.28447 | 30014 ft | 410 kts | 295° |
| 2026-05-07 12:56 | 48.49636 | 12.20893 | 30009 ft | 409 kts | 295° |
| 2026-05-07 12:57 | 48.52342 | 12.13334 | 30025 ft | 409 kts | 297° |
| 2026-05-07 12:57 | 48.55034 | 12.05796 | 30034 ft | 407 kts | 297° |
| 2026-05-07 12:58 | 48.57707 | 11.98281 | 30033 ft | 406 kts | 297° |
| 2026-05-07 12:58 | 48.60377 | 11.90764 | 30033 ft | 405 kts | 297° |
| 2026-05-07 12:59 | 48.63045 | 11.83265 | 30038 ft | 405 kts | 297° |
| 2026-05-07 12:59 | 48.65701 | 11.75748 | 30036 ft | 405 kts | 297° |
| 2026-05-07 13:00 | 48.68323 | 11.68285 | 30038 ft | 404 kts | 297° |
| 2026-05-07 13:00 | 48.70966 | 11.60758 | 30024 ft | 404 kts | 297° |
| 2026-05-07 13:01 | 48.73599 | 11.53239 | 30049 ft | 404 kts | 297° |
| 2026-05-07 13:01 | 48.76228 | 11.45714 | 30041 ft | 404 kts | 297° |
| 2026-05-07 13:02 | 48.78850 | 11.38184 | 30032 ft | 404 kts | 297° |
| 2026-05-07 13:02 | 48.81462 | 11.30648 | 30039 ft | 403 kts | 297° |
| 2026-05-07 13:03 | 48.84172 | 11.23224 | 30046 ft | 402 kts | 304° |
| 2026-05-07 13:03 | 48.87992 | 11.17040 | 30043 ft | 403 kts | 316° |
| 2026-05-07 13:04 | 48.91421 | 11.12279 | 30033 ft | 402 kts | 316° |
| 2026-05-07 13:04 | 48.96216 | 11.05589 | 30041 ft | 402 kts | 316° |
| 2026-05-07 13:05 | 49.00327 | 10.99829 | 30065 ft | 401 kts | 316° |
| 2026-05-07 13:05 | 49.03764 | 10.95004 | 30076 ft | 401 kts | 316° |
| 2026-05-07 13:06 | 49.07860 | 10.89239 | 30079 ft | 400 kts | 316° |
| 2026-05-07 13:06 | 49.11948 | 10.83474 | 30073 ft | 399 kts | 316° |
| 2026-05-07 13:07 | 49.15998 | 10.77745 | 30070 ft | 405 kts | 316° |
| 2026-05-07 13:07 | 49.20209 | 10.71735 | 30065 ft | 419 kts | 315° |
| 2026-05-07 13:08 | 49.24328 | 10.65401 | 30043 ft | 420 kts | 313° |
| 2026-05-07 13:08 | 49.28334 | 10.58952 | 29990 ft | 410 kts | 313° |
| 2026-05-07 13:09 | 49.30278 | 10.55829 | 29513 ft | 402 kts | 313° |
| 2026-05-07 13:09 | 49.32205 | 10.52752 | 28915 ft | 397 kts | 313° |
| 2026-05-07 13:09 | 49.34111 | 10.49722 | 28329 ft | 393 kts | 313° |
| 2026-05-07 13:09 | 49.35977 | 10.46684 | 27739 ft | 389 kts | 309° |
| 2026-05-07 13:10 | 49.37571 | 10.43349 | 27147 ft | 386 kts | 305° |
| 2026-05-07 13:10 | 49.39109 | 10.39982 | 26560 ft | 383 kts | 305° |
| 2026-05-07 13:10 | 49.40631 | 10.36654 | 25984 ft | 380 kts | 305° |
| 2026-05-07 13:10 | 49.42144 | 10.33339 | 25422 ft | 377 kts | 305° |
| 2026-05-07 13:11 | 49.43641 | 10.30060 | 24862 ft | 374 kts | 304° |
| 2026-05-07 13:11 | 49.45119 | 10.26821 | 24109 ft | 367 kts | 304° |
| 2026-05-07 13:11 | 49.46572 | 10.23626 | 23150 ft | 363 kts | 304° |
| 2026-05-07 13:11 | 49.48011 | 10.20457 | 22162 ft | 359 kts | 304° |
| 2026-05-07 13:12 | 49.49428 | 10.17330 | 21241 ft | 354 kts | 304° |
| 2026-05-07 13:12 | 49.50830 | 10.14231 | 20353 ft | 350 kts | 304° |
| 2026-05-07 13:12 | 49.52217 | 10.11169 | 19507 ft | 346 kts | 304° |
| 2026-05-07 13:12 | 49.53583 | 10.08147 | 18688 ft | 343 kts | 304° |
| 2026-05-07 13:13 | 49.54938 | 10.05143 | 17804 ft | 341 kts | 304° |
| 2026-05-07 13:13 | 49.56266 | 10.02196 | 16930 ft | 337 kts | 304° |
| 2026-05-07 13:13 | 49.57611 | 9.99211 | 16154 ft | 335 kts | 304° |
| 2026-05-07 13:13 | 49.58935 | 9.96276 | 15773 ft | 332 kts | 304° |
| 2026-05-07 13:14 | 49.60261 | 9.93334 | 15362 ft | 329 kts | 304° |
| 2026-05-07 13:14 | 49.61534 | 9.90503 | 14925 ft | 328 kts | 304° |
| 2026-05-07 13:14 | 49.62833 | 9.87610 | 14487 ft | 327 kts | 304° |
| 2026-05-07 13:14 | 49.64120 | 9.84732 | 14096 ft | 325 kts | 303° |
| 2026-05-07 13:15 | 49.65403 | 9.81860 | 14009 ft | 325 kts | 303° |
| 2026-05-07 13:15 | 49.66687 | 9.78985 | 14027 ft | 325 kts | 303° |
| 2026-05-07 13:15 | 49.67968 | 9.76108 | 14030 ft | 326 kts | 303° |
| 2026-05-07 13:15 | 49.69251 | 9.73227 | 14031 ft | 326 kts | 303° |
| 2026-05-07 13:16 | 49.70536 | 9.70334 | 14031 ft | 326 kts | 303° |
| 2026-05-07 13:16 | 49.71816 | 9.67452 | 13947 ft | 323 kts | 303° |
| 2026-05-07 13:16 | 49.73084 | 9.64594 | 13495 ft | 322 kts | 303° |
| 2026-05-07 13:16 | 49.74346 | 9.61750 | 13030 ft | 320 kts | 303° |
| 2026-05-07 13:17 | 49.75602 | 9.58919 | 12612 ft | 317 kts | 303° |
| 2026-05-07 13:17 | 49.76844 | 9.56117 | 12192 ft | 315 kts | 304° |
| 2026-05-07 13:17 | 49.78078 | 9.53330 | 11766 ft | 312 kts | 304° |
| 2026-05-07 13:17 | 49.79304 | 9.50562 | 11320 ft | 311 kts | 304° |
| 2026-05-07 13:18 | 49.80520 | 9.47806 | 11043 ft | 310 kts | 304° |
| 2026-05-07 13:18 | 49.81735 | 9.45046 | 11029 ft | 311 kts | 304° |
| 2026-05-07 13:18 | 49.82953 | 9.42279 | 11032 ft | 311 kts | 304° |
| 2026-05-07 13:18 | 49.84174 | 9.39505 | 11025 ft | 311 kts | 304° |
| 2026-05-07 13:19 | 49.85433 | 9.36820 | 10657 ft | 307 kts | 312° |
| 2026-05-07 13:19 | 49.86903 | 9.34475 | 10231 ft | 306 kts | 314° |
| 2026-05-07 13:19 | 49.88383 | 9.32128 | 9925 ft | 300 kts | 314° |
| 2026-05-07 13:19 | 49.89831 | 9.29833 | 9792 ft | 288 kts | 314° |
| 2026-05-07 13:20 | 49.91186 | 9.27682 | 9633 ft | 278 kts | 314° |
| 2026-05-07 13:20 | 49.92492 | 9.25601 | 9307 ft | 274 kts | 314° |
| 2026-05-07 13:20 | 49.93815 | 9.23490 | 8948 ft | 272 kts | 314° |
| 2026-05-07 13:20 | 49.95129 | 9.21393 | 8565 ft | 270 kts | 314° |
| 2026-05-07 13:21 | 49.96436 | 9.19302 | 8194 ft | 268 kts | 314° |
| 2026-05-07 13:21 | 49.97728 | 9.17231 | 7819 ft | 266 kts | 314° |
| 2026-05-07 13:21 | 49.99030 | 9.15148 | 7454 ft | 265 kts | 314° |
| 2026-05-07 13:21 | 50.00307 | 9.13106 | 7085 ft | 264 kts | 314° |
| 2026-05-07 13:22 | 50.01593 | 9.11051 | 6624 ft | 264 kts | 314° |
| 2026-05-07 13:22 | 50.02871 | 9.09005 | 6215 ft | 263 kts | 314° |
| 2026-05-07 13:22 | 50.04138 | 9.06973 | 5801 ft | 261 kts | 314° |
| 2026-05-07 13:22 | 50.05394 | 9.04956 | 5517 ft | 255 kts | 314° |
| 2026-05-07 13:23 | 50.06601 | 9.03018 | 5326 ft | 246 kts | 314° |
| 2026-05-07 13:23 | 50.07787 | 9.01114 | 5012 ft | 241 kts | 314° |
| 2026-05-07 13:23 | 50.08940 | 8.99254 | 4683 ft | 238 kts | 314° |
| 2026-05-07 13:23 | 50.10090 | 8.97399 | 4273 ft | 238 kts | 314° |
| 2026-05-07 13:24 | 50.11224 | 8.95538 | 4006 ft | 232 kts | 309° |
| 2026-05-07 13:24 | 50.11864 | 8.93300 | 3993 ft | 217 kts | 278° |
| 2026-05-07 13:24 | 50.11653 | 8.91056 | 3995 ft | 214 kts | 253° |
| 2026-05-07 13:24 | 50.11161 | 8.88898 | 3998 ft | 213 kts | 252° |
| 2026-05-07 13:25 | 50.10645 | 8.86721 | 3994 ft | 211 kts | 252° |
| 2026-05-07 13:25 | 50.10149 | 8.84617 | 3869 ft | 205 kts | 252° |
| 2026-05-07 13:25 | 50.09641 | 8.82462 | 3615 ft | 204 kts | 251° |
| 2026-05-07 13:25 | 50.09169 | 8.80460 | 3381 ft | 199 kts | 252° |
| 2026-05-07 13:26 | 50.08700 | 8.78472 | 3104 ft | 193 kts | 251° |
| 2026-05-07 13:26 | 50.08240 | 8.76521 | 2831 ft | 189 kts | 251° |
| 2026-05-07 13:26 | 50.07797 | 8.74649 | 2578 ft | 177 kts | 251° |
| 2026-05-07 13:26 | 50.07465 | 8.72904 | 2368 ft | 162 kts | 259° |
| 2026-05-07 13:27 | 50.07272 | 8.71278 | 2166 ft | 146 kts | 264° |
| 2026-05-07 13:27 | 50.07129 | 8.69749 | 1952 ft | 140 kts | 262° |
| 2026-05-07 13:27 | 50.06826 | 8.68337 | 1735 ft | 138 kts | 249° |
| 2026-05-07 13:27 | 50.06472 | 8.66954 | 1538 ft | 137 kts | 252° |
| 2026-05-07 13:28 | 50.06148 | 8.65563 | 1382 ft | 137 kts | 252° |
| 2026-05-07 13:28 | 50.05828 | 8.64177 | 1245 ft | 135 kts | 253° |
| 2026-05-07 13:28 | 50.05505 | 8.62815 | 1028 ft | 132 kts | 249° |
| 2026-05-07 13:28 | 50.05175 | 8.61482 | 840 ft | 131 kts | 248° |
| 2026-05-07 13:29 | 50.04857 | 8.60142 | 624 ft | 130 kts | 249° |
| 2026-05-07 13:29 | 50.04552 | 8.58858 | 451 ft | 129 kts | 247° |
| 2026-05-07 13:29 | 50.04252 | 8.57599 | 366 ft | 111 kts | 250° |
| 2026-05-07 13:29 | 50.04044 | 8.56737 | 358 ft | 61 kts | 249° |
| 2026-05-07 13:30 | 50.03995 | 8.56365 | 353 ft | 25 kts | 276° |
| 2026-05-07 13:30 | 50.04011 | 8.56209 | 359 ft | 6 kts | 280° |
| 2026-05-07 13:30 | 50.04019 | 8.56142 | 350 ft | 6 kts | 280° |
| 2026-05-07 13:30 | 50.04025 | 8.56083 | 357 ft | 5 kts | 279° |
| 2026-05-07 13:31 | 50.04039 | 8.56046 | 358 ft | 4 kts | 312° |
| 2026-05-07 13:31 | 50.04065 | 8.56006 | 354 ft | 5 kts | 316° |
| 2026-05-07 13:31 | 50.04113 | 8.55961 | 355 ft | 13 kts | 337° |
| 2026-05-07 13:31 | 50.04195 | 8.55916 | 354 ft | 11 kts | 346° |
| 2026-05-07 13:32 | 50.04256 | 8.55956 | 361 ft | 9 kts | 32° |
| 2026-05-07 13:32 | 50.04303 | 8.55956 | 358 ft | 6 kts | 336° |
| 2026-05-07 13:32 | 50.04339 | 8.55931 | 358 ft | 5 kts | 335° |
| 2026-05-07 13:32 | 50.04369 | 8.55918 | 361 ft | 5 kts | 355° |
| 2026-05-07 13:33 | 50.04411 | 8.55950 | 359 ft | 7 kts | 47° |
| 2026-05-07 13:33 | 50.04431 | 8.56018 | 360 ft | 7 kts | 69° |
| 2026-05-07 13:33 | 50.04446 | 8.56081 | 359 ft | 6 kts | 71° |
| 2026-05-07 13:33 | 50.04438 | 8.56132 | 363 ft | 5 kts | 136° |
| 2026-05-07 13:34 | 50.04412 | 8.56151 | 363 ft | 4 kts | 155° |
| 2026-05-07 13:34 | 50.04391 | 8.56167 | 360 ft | 0 kts | 154° |